Time;durP1;ratioP1;P1;durP2;ratioP2;P2;SDS_P1;SDS_P2;PMS_P1;PMS_P2;Temp;Humidity;BMP_temperature;BMP_pressure;BME280_temperature;BME280_humidity;BME280_pressure;Samples;Min_cycle;Max_cycle;Signal;HPM_P1;HPM_P2
2024/04/18 00:01:40;;;;;;;0.90;0.90;;;;;;;12.96;100.00;97861.53;5551010;25;20303;-67
2024/04/18 00:04:06;;;;;;;0.70;0.70;;;;;;;12.91;100.00;97841.25;5543368;25;20265;-67
2024/04/18 00:06:35;;;;;;;0.70;0.70;;;;;;;13.01;100.00;97846.63;5552115;25;20235;-67
2024/04/18 00:09:01;;;;;;;1.53;0.93;;;;;;;12.93;100.00;97843.72;5541338;25;20713;-67
2024/04/18 00:11:30;;;;;;;0.60;0.60;;;;;;;12.89;100.00;97868.00;5534133;25;20235;-67
2024/04/18 00:13:58;;;;;;;0.60;0.60;;;;;;;12.90;100.00;97870.47;5549978;25;20227;-67
2024/04/18 00:16:26;;;;;;;0.63;0.63;;;;;;;12.97;100.00;97881.19;5561839;25;20226;-67
2024/04/18 00:18:52;;;;;;;0.60;0.60;;;;;;;12.94;100.00;97876.25;5561335;25;20226;-67
2024/04/18 00:21:20;;;;;;;0.50;0.50;;;;;;;12.95;100.00;97872.75;5562494;25;20284;-67
2024/04/18 00:23:46;;;;;;;0.50;0.50;;;;;;;12.91;100.00;97866.97;5535639;25;20273;-67
2024/04/18 00:26:14;;;;;;;0.50;0.50;;;;;;;12.92;100.00;97865.25;5539303;25;20231;-67
2024/04/18 00:28:40;;;;;;;0.40;0.40;;;;;;;12.98;100.00;97872.56;5525514;25;20560;-67
2024/04/18 00:31:11;;;;;;;0.60;0.60;;;;;;;12.98;100.00;97877.69;5541762;25;20241;-67
2024/04/18 00:33:37;;;;;;;0.40;0.40;;;;;;;12.96;100.00;97869.25;5534590;25;20235;-67
2024/04/18 00:36:07;;;;;;;0.53;0.53;;;;;;;13.09;100.00;97880.44;5538738;25;20283;-67
2024/04/18 00:38:32;;;;;;;0.80;0.80;;;;;;;13.15;100.00;97864.59;5551275;25;20299;-67
2024/04/18 00:41:01;;;;;;;0.77;0.77;;;;;;;13.18;100.00;97872.13;5529064;25;20568;-67
2024/04/18 00:43:26;;;;;;;0.90;0.80;;;;;;;13.25;100.00;97867.41;5551166;25;20231;-66
2024/04/18 00:45:57;;;;;;;0.53;0.53;;;;;;;13.21;100.00;97853.94;5547286;25;20286;-66
2024/04/18 00:48:28;;;;;;;0.70;0.70;;;;;;;13.17;100.00;97857.63;5549003;25;20239;-67
2024/04/18 00:50:59;;;;;;;0.60;0.60;;;;;;;13.26;100.00;97885.31;5527719;25;20230;-67
2024/04/18 00:53:25;;;;;;;0.70;0.70;;;;;;;13.33;100.00;97868.56;5525255;25;20284;-67
2024/04/18 00:55:54;;;;;;;0.60;0.60;;;;;;;13.34;100.00;97872.78;5528251;25;20724;-67
2024/04/18 00:58:20;;;;;;;1.47;0.77;;;;;;;13.34;100.00;97880.50;5548120;25;20282;-67
2024/04/18 01:00:51;;;;;;;0.50;0.50;;;;;;;13.25;100.00;97845.06;5548155;25;20339;-67
2024/04/18 01:03:16;;;;;;;0.53;0.53;;;;;;;13.46;100.00;97876.28;5555341;25;20234;-67
2024/04/18 01:05:48;;;;;;;0.60;0.60;;;;;;;13.50;100.00;97873.44;5549791;25;20306;-67
2024/04/18 01:08:13;;;;;;;0.53;0.53;;;;;;;13.51;100.00;97877.63;5534496;25;20235;-67
2024/04/18 01:10:42;;;;;;;0.60;0.60;;;;;;;13.55;100.00;97876.50;5529626;25;20753;-67
2024/04/18 01:13:07;;;;;;;0.50;0.50;;;;;;;13.59;100.00;97880.53;5551701;25;20230;-67
2024/04/18 01:15:36;;;;;;;0.60;0.60;;;;;;;13.59;100.00;97880.53;5544601;25;20235;-67
2024/04/18 01:18:02;;;;;;;3.57;0.80;;;;;;;13.62;100.00;97880.34;5555056;25;20230;-67
2024/04/18 01:20:30;;;;;;;0.50;0.50;;;;;;;13.66;100.00;97884.34;5564205;25;20268;-67
2024/04/18 01:22:59;;;;;;;0.60;0.60;;;;;;;13.69;100.00;97880.75;5537599;25;20229;-67
2024/04/18 01:25:28;;;;;;;0.73;0.73;;;;;;;13.73;100.00;97876.22;5550903;25;20234;-67
2024/04/18 01:27:56;;;;;;;0.70;0.70;;;;;;;13.75;100.00;97879.50;5550356;25;20591;-67
2024/04/18 01:30:24;;;;;;;0.53;0.53;;;;;;;13.78;100.00;97877.56;5547526;25;20695;-67
2024/04/18 01:32:50;;;;;;;0.53;0.53;;;;;;;13.79;100.00;97879.22;5534453;25;20269;-67
2024/04/18 01:35:19;;;;;;;0.50;0.50;;;;;;;13.69;100.00;97883.31;5562764;25;20238;-67
2024/04/18 01:37:45;;;;;;;0.67;0.67;;;;;;;13.58;100.00;97876.31;5521661;25;20278;-67
2024/04/18 01:40:13;;;;;;;1.00;1.00;;;;;;;13.55;100.00;97884.22;5526362;25;20283;-67
2024/04/18 01:42:39;;;;;;;0.60;0.60;;;;;;;13.50;100.00;97881.16;5542990;25;20236;-67
2024/04/18 01:45:11;;;;;;;0.50;0.50;;;;;;;13.39;100.00;97878.44;5549494;25;20284;-67
2024/04/18 01:47:37;;;;;;;0.50;0.50;;;;;;;13.36;100.00;97880.38;5557813;25;20225;-67
2024/04/18 01:50:05;;;;;;;0.70;0.70;;;;;;;13.31;100.00;97875.53;5560452;25;20281;-67
2024/04/18 01:52:31;;;;;;;0.50;0.50;;;;;;;13.26;100.00;97882.75;5555769;25;20226;-67
2024/04/18 01:55:00;;;;;;;0.77;0.77;;;;;;;13.22;100.00;97881.28;5550221;25;20285;-67
2024/04/18 01:57:25;;;;;;;0.60;0.60;;;;;;;13.18;100.00;97873.88;5539472;25;20569;-67
2024/04/18 01:59:54;;;;;;;0.70;0.70;;;;;;;13.27;100.00;97888.72;5555475;25;20298;-67
2024/04/18 02:02:23;;;;;;;0.60;0.60;;;;;;;13.22;100.00;97891.56;5524174;25;20567;-67
2024/04/18 02:04:51;;;;;;;0.60;0.60;;;;;;;13.07;100.00;97888.22;5537444;25;20272;-67
2024/04/18 02:07:17;;;;;;;0.70;0.70;;;;;;;12.99;100.00;97889.63;5524483;25;20753;-66
2024/04/18 02:09:46;;;;;;;0.67;0.67;;;;;;;12.92;100.00;97886.63;5529676;25;20247;-67
2024/04/18 02:12:11;;;;;;;0.80;0.80;;;;;;;12.89;100.00;97883.44;5537512;25;20277;-67
2024/04/18 02:14:40;;;;;;;0.57;0.57;;;;;;;12.88;100.00;97898.03;5551441;25;20245;-67
2024/04/18 02:17:05;;;;;;;0.87;0.87;;;;;;;12.93;100.00;97890.84;5541683;25;20234;-67
2024/04/18 02:19:37;;;;;;;0.70;0.70;;;;;;;12.82;100.00;97900.16;5553554;25;20242;-67
2024/04/18 02:22:03;;;;;;;0.70;0.70;;;;;;;12.64;100.00;97890.09;5559289;25;20230;-67
2024/04/18 02:24:31;;;;;;;0.80;0.80;;;;;;;12.54;100.00;97914.72;5543815;25;20723;-67
2024/04/18 02:26:57;;;;;;;0.80;0.80;;;;;;;12.46;100.00;97908.41;5525528;25;20257;-67
2024/04/18 02:29:25;;;;;;;0.60;0.60;;;;;;;12.33;100.00;97916.06;5533807;25;20233;-67
2024/04/18 02:31:51;;;;;;;0.60;0.60;;;;;;;11.98;100.00;97901.94;5559244;25;20740;-67
2024/04/18 02:34:20;;;;;;;0.87;0.87;;;;;;;11.78;100.00;97907.41;5537289;25;20246;-67
2024/04/18 02:36:48;;;;;;;0.67;0.67;;;;;;;11.54;100.00;97904.50;5539298;25;20235;-67
2024/04/18 02:39:16;;;;;;;0.60;0.60;;;;;;;11.37;100.00;97908.03;5548429;25;20227;-67
2024/04/18 02:41:42;;;;;;;0.60;0.60;;;;;;;11.12;100.00;97907.75;5523073;25;20235;-67
2024/04/18 02:44:10;;;;;;;0.70;0.70;;;;;;;10.96;100.00;97907.78;5541412;25;20592;-67
2024/04/18 02:46:36;;;;;;;0.70;0.70;;;;;;;10.81;100.00;97907.81;5536770;25;20272;-67
2024/04/18 02:49:04;;;;;;;1.03;0.93;;;;;;;10.69;100.00;97909.31;5539273;25;20230;-66
2024/04/18 02:51:30;;;;;;;0.87;0.87;;;;;;;10.52;100.00;97912.78;5539236;25;20235;-67
2024/04/18 02:54:01;;;;;;;0.53;0.53;;;;;;;10.40;100.00;97905.72;5540252;25;20233;-67
2024/04/18 02:56:27;;;;;;;0.87;0.87;;;;;;;10.32;100.00;97920.69;5526022;25;20285;-67
2024/04/18 02:58:55;;;;;;;0.70;0.70;;;;;;;10.23;100.00;97915.22;5528885;25;20235;-67
2024/04/18 03:01:21;;;;;;;1.80;0.80;;;;;;;10.16;100.00;97917.28;5550132;25;20238;-67
2024/04/18 03:03:49;;;;;;;0.60;0.60;;;;;;;10.06;100.00;97918.63;5538789;25;20604;-67
2024/04/18 03:06:15;;;;;;;0.80;0.80;;;;;;;9.91;100.00;97932.22;5526984;25;20278;-67
2024/04/18 03:08:43;;;;;;;0.67;0.67;;;;;;;9.80;100.00;97931.91;5564416;25;20644;-66
2024/04/18 03:11:12;;;;;;;0.87;0.87;;;;;;;9.66;100.00;97932.59;5544812;25;20235;-67
2024/04/18 03:13:40;;;;;;;0.60;0.60;;;;;;;9.57;100.00;97929.69;5566330;25;20281;-67
2024/04/18 03:16:06;;;;;;;0.80;0.80;;;;;;;9.56;100.00;97930.59;5558401;25;20281;-67
2024/04/18 03:18:35;;;;;;;0.90;0.77;;;;;;;9.61;100.00;97923.50;5528543;25;20281;-66
2024/04/18 03:21:00;;;;;;;0.60;0.60;;;;;;;9.43;100.00;97910.72;5555136;25;20242;-67
2024/04/18 03:23:29;;;;;;;0.60;0.60;;;;;;;9.49;100.00;97920.69;5564752;25;20288;-67
2024/04/18 03:25:55;;;;;;;0.90;0.90;;;;;;;9.46;100.00;97918.28;5560581;25;20670;-67
2024/04/18 03:28:26;;;;;;;0.80;0.80;;;;;;;9.42;100.00;97921.88;5547124;25;20270;-67
2024/04/18 03:30:51;;;;;;;0.77;0.77;;;;;;;9.46;100.00;97927.66;5546445;25;20254;-67
2024/04/18 03:33:20;;;;;;;0.70;0.70;;;;;;;9.38;100.00;97925.47;5546777;25;20242;-67
2024/04/18 03:35:46;;;;;;;1.00;1.00;;;;;;;9.38;100.00;97933.16;5547523;25;20731;-67
2024/04/18 03:38:14;;;;;;;0.50;0.50;;;;;;;9.36;100.00;97934.97;5528910;25;20282;-67
2024/04/18 03:40:42;;;;;;;0.90;0.90;;;;;;;9.38;100.00;97930.59;5527984;25;20723;-66
2024/04/18 03:43:11;;;;;;;0.63;0.63;;;;;;;9.35;100.00;97920.50;5554451;25;20226;-67
2024/04/18 03:45:42;;;;;;;0.90;0.90;;;;;;;9.48;100.00;97930.97;5562328;25;20234;-67
2024/04/18 03:48:10;;;;;;;0.90;0.90;;;;;;;9.48;100.00;97931.81;5550128;25;20266;-67
2024/04/18 03:50:39;;;;;;;2.33;1.10;;;;;;;9.36;100.00;97921.34;5525951;25;20239;-67
2024/04/18 03:53:05;;;;;;;0.70;0.70;;;;;;;9.47;100.00;97940.38;5524779;25;20282;-67
2024/04/18 03:55:33;;;;;;;0.70;0.70;;;;;;;9.52;100.00;97941.88;5551676;25;20230;-67
2024/04/18 03:57:59;;;;;;;0.50;0.50;;;;;;;9.58;100.00;97954.38;5524817;25;20718;-67
2024/04/18 04:00:27;;;;;;;0.70;0.70;;;;;;;9.60;100.00;97950.81;5552250;25;20264;-67
2024/04/18 04:02:56;;;;;;;0.77;0.77;;;;;;;9.68;100.00;97953.84;5520601;25;20231;-67
2024/04/18 04:05:24;;;;;;;0.73;0.73;;;;;;;9.48;100.00;97926.69;5544548;25;20696;-67
2024/04/18 04:07:50;;;;;;;0.90;0.90;;;;;;;9.80;100.00;97963.47;5549383;25;20237;-63
2024/04/18 04:10:18;;;;;;;0.80;0.80;;;;;;;9.91;100.00;97960.38;5568741;25;20269;-64
2024/04/18 04:12:44;;;;;;;0.70;0.70;;;;;;;9.83;100.00;97947.13;5565783;25;20713;-64
2024/04/18 04:15:12;;;;;;;0.70;0.70;;;;;;;9.98;100.00;97970.22;5568392;25;20265;-63
2024/04/18 04:17:44;;;;;;;0.50;0.50;;;;;;;9.89;100.00;97959.59;5565798;25;20222;-65
2024/04/18 04:20:15;;;;;;;0.70;0.70;;;;;;;10.04;100.00;97976.78;5568418;25;20507;-64
2024/04/18 04:22:41;;;;;;;0.73;0.73;;;;;;;10.13;100.00;97989.09;5565693;25;20218;-63
2024/04/18 04:25:09;;;;;;;0.90;0.90;;;;;;;10.18;100.00;97994.84;5567165;25;20591;-63
2024/04/18 04:27:35;;;;;;;0.80;0.80;;;;;;;10.23;100.00;97994.63;5528282;25;20261;-64
2024/04/18 04:30:03;;;;;;;1.07;1.07;;;;;;;10.33;100.00;98004.31;5530645;25;20223;-64
2024/04/18 04:32:29;;;;;;;1.17;1.07;;;;;;;10.35;100.00;98006.78;5528385;25;20265;-64
2024/04/18 04:34:58;;;;;;;0.70;0.70;;;;;;;10.43;100.00;98015.75;5530787;25;20215;-64
2024/04/18 04:37:26;;;;;;;0.90;0.90;;;;;;;10.38;100.00;98011.75;5528237;25;20737;-64
2024/04/18 04:39:54;;;;;;;0.50;0.50;;;;;;;10.38;100.00;98022.81;5530648;26;20567;-64
2024/04/18 04:42:20;;;;;;;0.73;0.73;;;;;;;10.36;100.00;98029.78;5527905;25;20273;-64
2024/04/18 04:44:48;;;;;;;0.93;0.70;;;;;;;10.37;100.00;98033.16;5530452;26;20215;-64
2024/04/18 04:47:14;;;;;;;0.57;0.57;;;;;;;10.44;100.00;98037.88;5528083;25;20258;-64
2024/04/18 04:49:42;;;;;;;0.90;0.90;;;;;;;10.28;100.00;98026.75;5530513;25;20219;-64
2024/04/18 04:52:08;;;;;;;0.87;0.87;;;;;;;10.41;100.00;98038.03;5527608;25;20219;-64
2024/04/18 04:54:41;;;;;;;1.50;0.93;;;;;;;10.69;100.00;98044.31;5530194;26;20257;-64
2024/04/18 04:57:07;;;;;;;1.10;1.10;;;;;;;10.81;100.00;98052.19;5527614;26;20253;-64
2024/04/18 04:59:36;;;;;;;0.60;0.60;;;;;;;10.77;100.00;98054.97;5530228;26;20227;-64
2024/04/18 05:02:01;;;;;;;1.03;1.03;;;;;;;10.71;100.00;98055.31;5527795;25;20223;-64
2024/04/18 05:04:30;;;;;;;1.17;1.17;;;;;;;10.62;100.00;98061.75;5529813;26;20271;-64
2024/04/18 05:06:55;;;;;;;0.70;0.70;;;;;;;10.53;100.00;98068.16;5527567;25;20261;-64
2024/04/18 05:09:24;;;;;;;0.90;0.90;;;;;;;10.59;100.00;98072.16;5530132;25;20222;-64
2024/04/18 05:11:52;;;;;;;0.80;0.80;;;;;;;10.60;100.00;98073.78;5527716;25;20220;-64
2024/04/18 05:14:22;;;;;;;0.80;0.80;;;;;;;10.66;100.00;98068.38;5529830;26;20235;-65
2024/04/18 05:16:48;;;;;;;1.10;1.10;;;;;;;10.70;100.00;98069.00;5527463;25;20369;-65
2024/04/18 05:19:16;;;;;;;0.70;0.70;;;;;;;10.88;100.00;98073.19;5538950;25;20338;-64
2024/04/18 05:21:42;;;;;;;1.53;1.53;;;;;;;11.16;100.00;98073.38;5527175;25;20235;-65
2024/04/18 05:24:10;;;;;;;0.60;0.60;;;;;;;11.24;100.00;98081.50;5550260;25;20238;-65
2024/04/18 05:26:36;;;;;;;0.70;0.70;;;;;;;11.14;100.00;98077.78;5529529;25;20277;-64
2024/04/18 05:31:52;;;;;;;0.70;0.70;;;;;;;11.38;100.00;98096.97;5530254;25;20269;-64
2024/04/18 05:34:20;;;;;;;0.70;0.70;;;;;;;11.34;100.00;98087.78;5545079;25;20269;-64
2024/04/18 05:36:49;;;;;;;0.70;0.70;;;;;;;11.42;100.00;98100.19;5521969;25;20567;-64
2024/04/18 05:39:17;;;;;;;0.70;0.70;;;;;;;11.38;100.00;98104.66;5529558;25;20282;-65
2024/04/18 05:41:45;;;;;;;0.60;0.60;;;;;;;11.38;100.00;98104.66;5542600;25;20315;-65
2024/04/18 05:44:16;;;;;;;0.60;0.60;;;;;;;11.35;100.00;98109.97;5539609;25;20286;-64
2024/04/18 05:46:42;;;;;;;1.10;1.10;;;;;;;11.26;100.00;98104.50;5535364;25;20559;-65
2024/04/18 05:49:10;;;;;;;0.70;0.70;;;;;;;11.26;100.00;98105.34;5560925;25;20231;-64
2024/04/18 05:51:36;;;;;;;0.80;0.80;;;;;;;11.33;100.00;98106.66;5544345;25;20277;-64
2024/04/18 05:54:05;;;;;;;1.20;1.20;;;;;;;11.61;100.00;98121.38;5534307;25;20726;-63
2024/04/18 05:56:33;;;;;;;0.73;0.73;;;;;;;11.73;100.00;98109.66;5543047;25;20226;-64
2024/04/18 05:59:01;;;;;;;0.77;0.77;;;;;;;11.94;100.00;98123.88;5544613;25;20634;-64
2024/04/18 06:01:32;;;;;;;0.87;0.87;;;;;;;11.67;100.00;98104.81;5552296;25;20275;-64
2024/04/18 06:04:01;;;;;;;0.83;0.83;;;;;;;11.88;100.00;98144.75;5542964;25;20335;-64
2024/04/18 06:06:29;;;;;;;0.60;0.60;;;;;;;11.85;100.00;98139.78;5555272;25;20603;-65
2024/04/18 06:08:57;;;;;;;0.77;0.77;;;;;;;11.82;100.00;98142.53;5536724;25;20235;-64
2024/04/18 06:11:35;;;;;;;0.80;0.80;;;;;;;11.76;100.00;98148.00;5539194;25;20234;-65
2024/04/18 06:14:04;;;;;;;0.70;0.70;;;;;;;11.76;100.00;98145.44;5553728;25;20359;-64
2024/04/18 06:16:36;;;;;;;0.80;0.80;;;;;;;11.95;100.00;98156.34;5532585;25;20290;-64
2024/04/18 06:19:05;;;;;;;0.70;0.70;;;;;;;12.23;100.00;98153.06;5532044;25;20235;-65
2024/04/18 06:21:33;;;;;;;0.80;0.80;;;;;;;12.45;100.00;98149.16;5554125;25;20235;-64
2024/04/18 06:24:01;;;;;;;1.13;1.13;;;;;;;12.78;100.00;98153.28;5546129;25;20230;-67
2024/04/18 06:26:30;;;;;;;0.70;0.70;;;;;;;13.05;99.12;98156.78;5535168;25;20229;-66
2024/04/18 06:28:58;;;;;;;0.70;0.70;;;;;;;13.27;99.55;98167.47;5557040;25;20246;-66
2024/04/18 06:31:26;;;;;;;0.87;0.87;;;;;;;13.33;98.56;98179.97;5567196;25;20535;-66
2024/04/18 06:33:57;;;;;;;0.63;0.63;;;;;;;13.10;95.28;98173.63;5562697;25;20215;-64
2024/04/18 06:36:26;;;;;;;0.50;0.50;;;;;;;12.83;94.37;98180.38;5530098;25;20219;-65
2024/04/18 06:38:54;;;;;;;0.73;0.73;;;;;;;12.57;95.65;98184.44;5530147;26;20207;-67
2024/04/18 06:41:22;;;;;;;1.00;1.00;;;;;;;12.58;97.98;98186.09;5529490;25;20235;-67
2024/04/18 06:43:51;;;;;;;0.90;0.90;;;;;;;12.49;99.26;98189.22;5529668;25;20231;-66
2024/04/18 06:46:19;;;;;;;2.30;0.90;;;;;;;12.55;99.28;98201.72;5529238;25;20585;-66
2024/04/18 06:48:48;;;;;;;0.93;0.93;;;;;;;12.67;99.58;98202.75;5537628;25;20335;-68
2024/04/18 06:51:19;;;;;;;1.10;1.10;;;;;;;12.84;98.15;98209.47;5561152;25;20225;-67
2024/04/18 06:53:47;;;;;;;0.80;0.80;;;;;;;12.94;97.25;98216.59;5544954;25;20274;-67
2024/04/18 06:56:15;;;;;;;0.87;0.87;;;;;;;13.06;96.15;98220.16;5547876;25;20310;-65
2024/04/18 06:58:44;;;;;;;0.83;0.83;;;;;;;13.12;93.90;98224.97;5535362;25;20230;-65
2024/04/18 07:01:12;;;;;;;1.00;1.00;;;;;;;13.07;93.90;98222.66;5542953;25;20281;-65
2024/04/18 07:03:41;;;;;;;0.97;0.97;;;;;;;12.92;95.09;98228.72;5529173;26;20555;-65
2024/04/18 07:06:09;;;;;;;0.87;0.87;;;;;;;12.90;95.90;98230.53;5529274;25;20223;-65
2024/04/18 07:08:40;;;;;;;0.80;0.80;;;;;;;12.89;94.89;98225.50;5529709;25;20695;-65
2024/04/18 07:11:09;;;;;;;1.37;1.37;;;;;;;12.80;96.32;98218.28;5543120;25;20235;-65
2024/04/18 07:13:37;;;;;;;0.80;0.80;;;;;;;12.73;95.89;98229.88;5540913;25;20274;-65
2024/04/18 07:16:06;;;;;;;1.00;1.00;;;;;;;12.68;95.19;98229.28;5529241;25;20547;-66
2024/04/18 07:18:35;;;;;;;0.70;0.70;;;;;;;12.64;94.55;98232.03;5557430;25;20277;-70
2024/04/18 07:21:03;;;;;;;0.97;0.97;;;;;;;12.68;96.16;98232.69;5547158;25;20551;-70
2024/04/18 07:23:31;;;;;;;0.90;0.90;;;;;;;12.70;95.66;98237.75;5551911;25;20269;-67
2024/04/18 07:26:02;;;;;;;0.87;0.87;;;;;;;12.75;95.43;98240.88;5529062;25;20247;-66
2024/04/18 07:28:31;;;;;;;0.73;0.73;;;;;;;12.88;95.23;98231.53;5529188;25;20223;-66
2024/04/18 07:30:59;;;;;;;0.73;0.73;;;;;;;13.09;96.04;98238.03;5529276;25;20219;-66
2024/04/18 07:33:28;;;;;;;0.60;0.60;;;;;;;13.28;95.62;98241.16;5528236;25;20676;-67
2024/04/18 07:35:56;;;;;;;0.70;0.70;;;;;;;13.40;94.22;98235.31;5530105;25;20219;-65
2024/04/18 07:38:25;;;;;;;2.73;1.40;;;;;;;13.56;94.88;98240.34;5563541;25;20273;-65
2024/04/18 07:40:53;;;;;;;1.20;1.20;;;;;;;13.59;93.73;98235.84;5550262;25;20695;-65
2024/04/18 07:43:24;;;;;;;0.97;0.97;;;;;;;13.49;91.56;98245.06;5533381;25;20341;-65
2024/04/18 07:45:52;;;;;;;0.90;0.90;;;;;;;13.42;92.19;98248.91;5566120;25;20252;-64
2024/04/18 07:48:21;;;;;;;1.17;1.00;;;;;;;13.28;91.57;98251.47;5566283;25;20264;-65
2024/04/18 07:50:49;;;;;;;0.90;0.90;;;;;;;13.21;92.22;98255.34;5558294;25;20574;-66
2024/04/18 07:53:17;;;;;;;0.80;0.80;;;;;;;13.15;91.75;98255.69;5528964;25;20265;-65
2024/04/18 07:55:46;;;;;;;0.83;0.83;;;;;;;13.04;92.47;98255.47;5528731;25;20215;-64
2024/04/18 07:58:15;;;;;;;1.53;0.93;;;;;;;13.03;93.81;98248.66;5528609;25;20261;-64
2024/04/18 08:00:46;;;;;;;1.00;0.70;;;;;;;13.13;92.27;98247.22;5538801;25;20249;-64
2024/04/18 08:03:14;;;;;;;0.90;0.90;;;;;;;13.23;94.31;98248.34;5563186;25;21878;-65
2024/04/18 08:05:43;;;;;;;0.77;0.77;;;;;;;13.37;95.13;98250.09;5528468;26;20223;-66
2024/04/18 08:08:11;;;;;;;1.13;1.00;;;;;;;13.67;92.83;98253.41;5528630;25;20223;-66
2024/04/18 08:10:40;;;;;;;1.23;1.23;;;;;;;14.00;92.37;98255.66;5528400;26;20266;-65
2024/04/18 08:13:08;;;;;;;0.70;0.70;;;;;;;14.31;94.65;98265.72;5553997;25;20284;-65
2024/04/18 08:15:40;;;;;;;1.00;1.00;;;;;;;14.66;94.01;98261.75;5565876;25;20555;-65
2024/04/18 08:18:12;;;;;;;1.13;1.13;;;;;;;14.97;89.51;98273.44;5530097;25;20236;-65
2024/04/18 08:20:40;;;;;;;1.03;1.03;;;;;;;15.29;87.51;98270.47;5528172;25;20224;-65
2024/04/18 08:23:08;;;;;;;1.07;1.07;;;;;;;15.57;89.12;98260.78;5531278;25;20740;-64
2024/04/18 08:25:37;;;;;;;0.70;0.70;;;;;;;15.63;85.21;98270.72;5535260;25;20276;-64
2024/04/18 08:28:06;;;;;;;2.87;1.17;;;;;;;15.63;85.08;98270.72;5528129;25;20266;-65
2024/04/18 08:30:34;;;;;;;0.73;0.73;;;;;;;15.79;83.76;98280.00;5527950;25;20270;-64
2024/04/18 08:33:03;;;;;;;0.77;0.77;;;;;;;16.14;83.89;98280.94;5564960;25;20230;-65
2024/04/18 08:35:34;;;;;;;0.90;0.90;;;;;;;16.39;82.88;98280.84;5565490;25;20551;-65
2024/04/18 08:38:02;;;;;;;0.73;0.73;;;;;;;16.50;78.84;98283.50;5565289;25;20222;-65
2024/04/18 08:40:31;;;;;;;0.80;0.80;;;;;;;16.73;80.79;98290.47;5504269;25;20235;-66
2024/04/18 08:42:59;;;;;;;1.00;1.00;;;;;;;16.83;80.46;98279.44;5565661;25;20218;-65
2024/04/18 08:45:33;;;;;;;0.80;0.80;;;;;;;16.94;77.97;98277.72;5564889;25;20261;-65
2024/04/18 08:48:02;;;;;;;0.80;0.80;;;;;;;17.08;75.08;98284.47;5551476;25;20235;-65
2024/04/18 08:50:34;;;;;;;0.80;0.80;;;;;;;17.20;71.53;98284.38;5527666;26;20235;-65
2024/04/18 08:53:06;;;;;;;0.90;0.90;;;;;;;17.36;73.63;98285.81;5535838;25;20729;-65
2024/04/18 08:55:37;;;;;;;1.10;1.10;;;;;;;17.49;77.63;98283.94;5565342;25;20253;-65
2024/04/18 08:58:09;;;;;;;0.50;0.50;;;;;;;17.48;73.37;98288.28;5565398;25;20222;-66
2024/04/18 09:00:40;;;;;;;0.80;0.80;;;;;;;17.37;70.28;98279.69;5565100;25;20546;-66
2024/04/18 09:03:10;;;;;;;0.90;0.90;;;;;;;17.63;75.14;98274.22;5565283;25;20214;-65
2024/04/18 09:05:41;;;;;;;0.80;0.80;;;;;;;17.88;71.08;98275.75;5557137;25;20603;-67
2024/04/18 09:08:12;;;;;;;0.83;0.83;;;;;;;18.09;72.06;98283.63;5548151;25;20783;-67
2024/04/18 09:10:42;;;;;;;0.90;0.90;;;;;;;18.25;74.08;98276.28;5558530;25;20372;-67
2024/04/18 09:13:11;;;;;;;1.70;0.80;;;;;;;18.33;70.04;98292.06;5557648;25;20373;-66
2024/04/18 09:15:39;;;;;;;0.70;0.70;;;;;;;18.42;71.45;98291.31;5527806;25;20712;-67
2024/04/18 09:18:09;;;;;;;1.00;1.00;;;;;;;18.47;65.34;98294.41;5533432;25;20231;-66
2024/04/18 09:20:41;;;;;;;0.60;0.60;;;;;;;18.46;69.15;98282.34;5535566;25;20274;-66
2024/04/18 09:23:09;;;;;;;0.83;0.83;;;;;;;18.55;74.24;98281.66;5527386;26;20277;-66
2024/04/18 09:25:39;;;;;;;0.70;0.70;;;;;;;18.85;74.93;98294.75;5527421;25;20564;-66
2024/04/18 09:28:08;;;;;;;0.60;0.60;;;;;;;18.91;70.34;98302.97;5542788;25;20726;-66
2024/04/18 09:30:38;;;;;;;0.70;0.70;;;;;;;18.99;69.31;98300.59;5543125;25;20786;-65
2024/04/18 09:33:07;;;;;;;0.60;0.60;;;;;;;18.94;66.87;98292.34;5540128;25;20276;-66
2024/04/18 09:35:37;;;;;;;0.60;0.60;;;;;;;18.81;70.25;98298.53;5532387;25;20236;-66
2024/04/18 09:38:10;;;;;;;0.80;0.80;;;;;;;18.97;72.21;98302.47;5552657;25;20230;-65
2024/04/18 09:40:44;;;;;;;0.73;0.73;;;;;;;19.02;70.52;98302.94;5564316;25;20230;-65
2024/04/18 09:43:20;;;;;;;0.83;0.83;;;;;;;18.77;66.17;98299.72;5564396;25;20243;-65
2024/04/18 09:45:52;;;;;;;0.80;0.80;;;;;;;18.67;67.89;98295.44;5542915;25;20230;-68
2024/04/18 09:48:22;;;;;;;0.80;0.80;;;;;;;18.61;65.51;98293.31;5539144;25;21502;-67
2024/04/18 09:50:53;;;;;;;0.73;0.73;;;;;;;18.36;63.45;98302.19;5524437;25;21428;-68
2024/04/18 09:53:25;;;;;;;0.60;0.60;;;;;;;17.96;63.36;98288.13;5524305;25;20227;-67
2024/04/18 09:55:55;;;;;;;0.97;0.97;;;;;;;17.81;66.35;98288.34;5519021;25;20231;-67
2024/04/18 09:58:25;;;;;;;0.67;0.67;;;;;;;17.64;66.72;98294.00;5518504;25;20571;-70
2024/04/18 10:00:54;;;;;;;1.23;0.80;;;;;;;17.24;63.22;98295.34;5518145;25;20228;-71
2024/04/18 10:03:23;;;;;;;0.90;0.90;;;;;;;17.29;69.58;98288.03;5522458;25;20664;-69
2024/04/18 10:05:55;;;;;;;0.60;0.60;;;;;;;17.47;65.79;98304.81;5524033;25;20230;-72
2024/04/18 10:08:32;;;;;;;0.60;0.60;;;;;;;17.65;71.11;98289.63;5523771;25;20566;-72
2024/04/18 10:11:01;;;;;;;0.80;0.80;;;;;;;17.54;63.41;98295.63;5520937;25;20265;-71
2024/04/18 10:13:30;;;;;;;0.80;0.80;;;;;;;17.52;67.03;98289.72;5536705;25;20269;-70
2024/04/18 10:16:06;;;;;;;0.87;0.87;;;;;;;17.65;70.28;98284.47;5534347;25;20227;-68
2024/04/18 10:18:38;;;;;;;0.80;0.80;;;;;;;17.86;73.90;98300.97;5521649;25;20230;-69
2024/04/18 10:21:11;;;;;;;0.57;0.57;;;;;;;17.88;69.21;98295.66;5522496;25;20423;-67
2024/04/18 10:23:48;;;;;;;1.30;0.83;;;;;;;17.96;65.92;98306.28;5526698;25;20273;-67
2024/04/18 10:26:16;;;;;;;1.00;1.00;;;;;;;17.80;70.08;98267.75;5523943;25;20230;-68
2024/04/18 10:28:45;;;;;;;0.53;0.53;;;;;;;18.13;67.02;98316.13;5521431;25;20236;-67
2024/04/18 10:31:14;;;;;;;0.73;0.73;;;;;;;17.98;65.01;98300.03;5526769;25;20349;-67
2024/04/18 10:33:43;;;;;;;0.60;0.60;;;;;;;18.28;70.30;98309.78;5524110;25;20350;-66
2024/04/18 10:36:11;;;;;;;0.73;0.73;;;;;;;18.64;69.61;98306.84;5536507;25;20286;-67
2024/04/18 10:38:47;;;;;;;0.70;0.70;;;;;;;18.75;67.13;98309.44;5521429;25;20560;-67
2024/04/18 10:41:17;;;;;;;0.80;0.80;;;;;;;18.80;68.84;98299.47;5522725;25;20236;-66
2024/04/18 10:43:44;;;;;;;0.50;0.50;;;;;;;18.62;69.97;98269.81;5521199;25;20278;-67
2024/04/18 10:46:13;;;;;;;1.40;1.13;;;;;;;18.86;62.12;98306.81;5526904;25;20266;-66
2024/04/18 10:48:42;;;;;;;0.60;0.60;;;;;;;19.00;67.59;98303.06;5544849;25;20262;-67
2024/04/18 10:51:11;;;;;;;0.50;0.50;;;;;;;19.09;70.32;98291.09;5522740;25;20831;-66
2024/04/18 10:53:40;;;;;;;0.80;0.80;;;;;;;19.20;62.09;98311.81;5524151;25;20276;-66
2024/04/18 10:56:11;;;;;;;0.70;0.70;;;;;;;19.32;66.18;98300.44;5524244;25;20270;-66
2024/04/18 10:58:40;;;;;;;0.70;0.70;;;;;;;19.42;65.62;98309.13;5520828;25;20280;-66
2024/04/18 11:01:09;;;;;;;0.73;0.73;;;;;;;19.36;65.16;98309.59;5523228;25;20269;-66
2024/04/18 11:03:37;;;;;;;0.77;0.77;;;;;;;19.35;63.81;98305.38;5522422;25;20280;-66
2024/04/18 11:06:06;;;;;;;0.60;0.60;;;;;;;19.49;65.53;98304.22;5522063;25;20280;-66
2024/04/18 11:08:34;;;;;;;0.60;0.60;;;;;;;19.44;62.86;98307.22;5523867;25;20274;-66
2024/04/18 11:11:04;;;;;;;0.60;0.60;;;;;;;19.38;61.26;98315.50;5532377;25;20346;-67
2024/04/18 11:13:35;;;;;;;0.80;0.80;;;;;;;19.45;64.04;98298.47;5556813;25;20271;-67
2024/04/18 11:16:05;;;;;;;0.70;0.70;;;;;;;19.22;63.00;98312.53;5535089;25;20264;-67
2024/04/18 11:18:33;;;;;;;0.50;0.50;;;;;;;19.21;65.07;98314.31;5538673;25;20237;-66
2024/04/18 11:21:02;;;;;;;0.60;0.60;;;;;;;18.93;64.69;98301.94;5523136;25;20241;-66
2024/04/18 11:23:30;;;;;;;0.60;0.60;;;;;;;18.84;64.55;98308.69;5526839;25;20236;-66
2024/04/18 11:25:59;;;;;;;0.70;0.70;;;;;;;18.97;63.00;98312.88;5541026;25;20285;-67
2024/04/18 11:28:28;;;;;;;0.87;0.87;;;;;;;19.07;61.80;98335.38;5532970;25;20753;-66
2024/04/18 11:30:59;;;;;;;0.67;0.67;;;;;;;19.15;60.30;98319.19;5526754;25;20567;-67
2024/04/18 11:33:27;;;;;;;0.73;0.73;;;;;;;19.13;61.76;98318.47;5524068;25;20269;-67
2024/04/18 11:35:57;;;;;;;0.80;0.80;;;;;;;19.21;59.33;98311.69;5529563;25;20268;-66
2024/04/18 11:38:27;;;;;;;0.80;0.80;;;;;;;19.20;58.38;98317.00;5541527;25;20245;-66